Male, Maldives
Current Conditions -  °F | °C
As of 9:00 AM on Friday 31 Oct 2014 (Local Time) from VRMM Reporting Station
Broken Clouds Broken Clouds  
Wind Chill: 84°   Ceiling: 27000
Heat Index: 94°   Visibility: 6mi
Dew Point: 77°   Wind: 6mph
Humidity: 79%   Direction: 250°WSW
Pressure: 29.88"   Gusts: NA
Location:  4.17°N, 73.5°E
Report Text: VRMM 310400Z 25005KT 9999 FEW017 FEW018CB SCT120 BKN27029/25 Q1012 CB S NOSIG
Loading
Personal Weather Stations






























Interactive Weather Map
Tropical Storm Tracking
New forecast layout! Learn more

10-Day Weather Forecast

Advertisements
Track Severe Weather on mobile